JAL320 RJFF-RJTT
Flight info
| Callsign | JAL320 |
|---|---|
| Flight time | 1h 19m |
| Altitude | 41000 |
| Route | IPRIR Y231 OMKAT Y235 FLUTE Y23 ARTIC Y71 XAC |
| Aircraft | A359/H-SDE2E3GHIJ1J3J4J5LM1ORWXYZ/LB1D1 |
Departure
| Time | 2026-05-08 07:13 |
|---|---|
| Airport | Fukuoka Airport (RJFF) |
Arrival
| Time | 2026-05-08 08:33 |
|---|---|
| Airport | Tokyo Haneda International Airport (RJTT) |
| Time | Latitude | Longitude | Altitude | Speed | Heading |
|---|---|---|---|---|---|
| 2026-05-08 06:00 | 33.59588 | 130.44826 | 31 ft | 0 kts | 59° |
| 2026-05-08 07:00 | 33.59581 | 130.44812 | 30 ft | 3 kts | 61° |
| 2026-05-08 07:00 | 33.59571 | 130.44791 | 31 ft | 3 kts | 61° |
| 2026-05-08 07:01 | 33.59563 | 130.44772 | 31 ft | 3 kts | 71° |
| 2026-05-08 07:01 | 33.59558 | 130.44754 | 29 ft | 3 kts | 99° |
| 2026-05-08 07:01 | 33.59562 | 130.44738 | 29 ft | 3 kts | 130° |
| 2026-05-08 07:01 | 33.59575 | 130.44723 | 29 ft | 3 kts | 147° |
| 2026-05-08 07:02 | 33.59589 | 130.44713 | 29 ft | 1 kts | 150° |
| 2026-05-08 07:02 | 33.59591 | 130.44712 | 29 ft | 0 kts | 150° |
| 2026-05-08 07:06 | 33.59574 | 130.44723 | 29 ft | 8 kts | 150° |
| 2026-05-08 07:06 | 33.59511 | 130.44766 | 31 ft | 12 kts | 150° |
| 2026-05-08 07:06 | 33.59431 | 130.44820 | 31 ft | 11 kts | 150° |
| 2026-05-08 07:06 | 33.59355 | 130.44854 | 31 ft | 12 kts | 175° |
| 2026-05-08 07:07 | 33.59263 | 130.44856 | 31 ft | 11 kts | 178° |
| 2026-05-08 07:07 | 33.59187 | 130.44888 | 31 ft | 13 kts | 151° |
| 2026-05-08 07:07 | 33.59100 | 130.44947 | 32 ft | 16 kts | 150° |
| 2026-05-08 07:07 | 33.58997 | 130.45018 | 32 ft | 18 kts | 150° |
| 2026-05-08 07:08 | 33.58879 | 130.45098 | 33 ft | 21 kts | 150° |
| 2026-05-08 07:08 | 33.58746 | 130.45189 | 34 ft | 23 kts | 150° |
| 2026-05-08 07:08 | 33.58599 | 130.45289 | 33 ft | 25 kts | 150° |
| 2026-05-08 07:08 | 33.58441 | 130.45397 | 37 ft | 27 kts | 150° |
| 2026-05-08 07:09 | 33.58282 | 130.45505 | 39 ft | 23 kts | 150° |
| 2026-05-08 07:09 | 33.58146 | 130.45598 | 40 ft | 23 kts | 150° |
| 2026-05-08 07:09 | 33.58004 | 130.45695 | 43 ft | 24 kts | 150° |
| 2026-05-08 07:09 | 33.57878 | 130.45780 | 46 ft | 14 kts | 150° |
| 2026-05-08 07:10 | 33.57786 | 130.45843 | 48 ft | 16 kts | 150° |
| 2026-05-08 07:10 | 33.57715 | 130.45892 | 49 ft | 11 kts | 150° |
| 2026-05-08 07:10 | 33.57674 | 130.45907 | 50 ft | 9 kts | 178° |
| 2026-05-08 07:10 | 33.57620 | 130.45857 | 51 ft | 2 kts | 238° |
| 2026-05-08 07:11 | 33.57607 | 130.45830 | 51 ft | 8 kts | 238° |
| 2026-05-08 07:11 | 33.57589 | 130.45788 | 50 ft | 8 kts | 250° |
| 2026-05-08 07:12 | 33.57606 | 130.45735 | 49 ft | 8 kts | 329° |
| 2026-05-08 07:12 | 33.57663 | 130.45701 | 49 ft | 0 kts | 330° |
| 2026-05-08 07:13 | 33.57756 | 130.45638 | 48 ft | 45 kts | 330° |
| 2026-05-08 07:13 | 33.58251 | 130.45299 | 40 ft | 117 kts | 330° |
| 2026-05-08 07:13 | 33.59119 | 130.44733 | 314 ft | 148 kts | 329° |
| 2026-05-08 07:13 | 33.59984 | 130.44197 | 1326 ft | 134 kts | 329° |
| 2026-05-08 07:14 | 33.60831 | 130.43674 | 1976 ft | 141 kts | 328° |
| 2026-05-08 07:14 | 33.61707 | 130.43082 | 2490 ft | 145 kts | 325° |
| 2026-05-08 07:14 | 33.62554 | 130.42459 | 3128 ft | 143 kts | 326° |
| 2026-05-08 07:14 | 33.63439 | 130.41816 | 3545 ft | 157 kts | 328° |
| 2026-05-08 07:15 | 33.64456 | 130.41143 | 3927 ft | 178 kts | 334° |
| 2026-05-08 07:15 | 33.65749 | 130.40933 | 4198 ft | 207 kts | 8° |
| 2026-05-08 07:15 | 33.67046 | 130.41923 | 4532 ft | 242 kts | 46° |
| 2026-05-08 07:15 | 33.67937 | 130.43731 | 5056 ft | 260 kts | 58° |
| 2026-05-08 07:16 | 33.68683 | 130.45758 | 5647 ft | 273 kts | 67° |
| 2026-05-08 07:16 | 33.68937 | 130.48037 | 6264 ft | 288 kts | 91° |
| 2026-05-08 07:16 | 33.68344 | 130.50357 | 6873 ft | 300 kts | 120° |
| 2026-05-08 07:16 | 33.66887 | 130.52163 | 7428 ft | 305 kts | 150° |
| 2026-05-08 07:17 | 33.65100 | 130.53554 | 8045 ft | 309 kts | 143° |
| 2026-05-08 07:17 | 33.63412 | 130.55180 | 8719 ft | 313 kts | 143° |
| 2026-05-08 07:17 | 33.61673 | 130.56794 | 9350 ft | 318 kts | 146° |
| 2026-05-08 07:17 | 33.59881 | 130.58388 | 9967 ft | 323 kts | 147° |
| 2026-05-08 07:18 | 33.58035 | 130.59992 | 10326 ft | 336 kts | 148° |
| 2026-05-08 07:18 | 33.56090 | 130.61658 | 10593 ft | 352 kts | 148° |
| 2026-05-08 07:18 | 33.54050 | 130.63396 | 10883 ft | 366 kts | 148° |
| 2026-05-08 07:18 | 33.51940 | 130.65187 | 11286 ft | 375 kts | 148° |
| 2026-05-08 07:19 | 33.49796 | 130.67007 | 11803 ft | 379 kts | 149° |
| 2026-05-08 07:19 | 33.47630 | 130.68845 | 12312 ft | 384 kts | 149° |
| 2026-05-08 07:19 | 33.45443 | 130.70700 | 12855 ft | 387 kts | 149° |
| 2026-05-08 07:19 | 33.43233 | 130.72572 | 13385 ft | 391 kts | 150° |
| 2026-05-08 07:20 | 33.41000 | 130.74460 | 13892 ft | 394 kts | 150° |
| 2026-05-08 07:20 | 33.38755 | 130.76356 | 14343 ft | 397 kts | 150° |
| 2026-05-08 07:20 | 33.36488 | 130.78270 | 14815 ft | 399 kts | 150° |
| 2026-05-08 07:20 | 33.34282 | 130.80248 | 15260 ft | 407 kts | 144° |
| 2026-05-08 07:21 | 33.32472 | 130.82898 | 15705 ft | 420 kts | 122° |
| 2026-05-08 07:21 | 33.31476 | 130.86201 | 16143 ft | 427 kts | 100° |
| 2026-05-08 07:21 | 33.31439 | 130.89742 | 16550 ft | 428 kts | 78° |
| 2026-05-08 07:21 | 33.32298 | 130.93129 | 16970 ft | 426 kts | 63° |
| 2026-05-08 07:22 | 33.33417 | 130.96419 | 17376 ft | 430 kts | 64° |
| 2026-05-08 07:22 | 33.34436 | 130.99817 | 17758 ft | 437 kts | 70° |
| 2026-05-08 07:22 | 33.34984 | 131.03416 | 18160 ft | 444 kts | 83° |
| 2026-05-08 07:22 | 33.35504 | 131.07065 | 18488 ft | 445 kts | 74° |
| 2026-05-08 07:23 | 33.36307 | 131.10655 | 18819 ft | 448 kts | 71° |
| 2026-05-08 07:23 | 33.37209 | 131.14244 | 19126 ft | 452 kts | 70° |
| 2026-05-08 07:23 | 33.38124 | 131.17858 | 19448 ft | 456 kts | 71° |
| 2026-05-08 07:23 | 33.39017 | 131.21515 | 19774 ft | 460 kts | 72° |
| 2026-05-08 07:24 | 33.39885 | 131.25235 | 20097 ft | 464 kts | 72° |
| 2026-05-08 07:24 | 33.40726 | 131.28984 | 20386 ft | 469 kts | 73° |
| 2026-05-08 07:24 | 33.41559 | 131.32783 | 20675 ft | 473 kts | 74° |
| 2026-05-08 07:24 | 33.42388 | 131.36612 | 21014 ft | 476 kts | 74° |
| 2026-05-08 07:25 | 33.43216 | 131.40455 | 21316 ft | 479 kts | 74° |
| 2026-05-08 07:25 | 33.44052 | 131.44338 | 21583 ft | 483 kts | 75° |
| 2026-05-08 07:25 | 33.45749 | 131.52205 | 22164 ft | 490 kts | 75° |
| 2026-05-08 07:26 | 33.46605 | 131.56173 | 22454 ft | 494 kts | 75° |
| 2026-05-08 07:26 | 33.47458 | 131.60121 | 22697 ft | 498 kts | 75° |
| 2026-05-08 07:26 | 33.48326 | 131.64152 | 22991 ft | 500 kts | 75° |
| 2026-05-08 07:26 | 33.49195 | 131.68198 | 23309 ft | 503 kts | 75° |
| 2026-05-08 07:27 | 33.50068 | 131.72275 | 23580 ft | 506 kts | 75° |
| 2026-05-08 07:27 | 33.50943 | 131.76378 | 23788 ft | 510 kts | 75° |
| 2026-05-08 07:27 | 33.51824 | 131.80508 | 24020 ft | 512 kts | 75° |
| 2026-05-08 07:27 | 33.52706 | 131.84641 | 24274 ft | 514 kts | 75° |
| 2026-05-08 07:28 | 33.53593 | 131.88800 | 24536 ft | 516 kts | 75° |
| 2026-05-08 07:28 | 33.54483 | 131.92983 | 24805 ft | 518 kts | 76° |
| 2026-05-08 07:28 | 33.55375 | 131.97179 | 25053 ft | 520 kts | 76° |
| 2026-05-08 07:28 | 33.56269 | 132.01399 | 25304 ft | 522 kts | 76° |
| 2026-05-08 07:29 | 33.57160 | 132.05614 | 25564 ft | 524 kts | 76° |
| 2026-05-08 07:29 | 33.58055 | 132.09854 | 25824 ft | 526 kts | 76° |
| 2026-05-08 07:29 | 33.58954 | 132.14123 | 26086 ft | 528 kts | 76° |
| 2026-05-08 07:29 | 33.59852 | 132.18398 | 26349 ft | 530 kts | 76° |
| 2026-05-08 07:30 | 33.60757 | 132.22707 | 26614 ft | 532 kts | 76° |
| 2026-05-08 07:30 | 33.61660 | 132.27021 | 26869 ft | 534 kts | 76° |
| 2026-05-08 07:30 | 33.62568 | 132.31355 | 27132 ft | 537 kts | 76° |
| 2026-05-08 07:30 | 33.63479 | 132.35704 | 27397 ft | 539 kts | 76° |
| 2026-05-08 07:31 | 33.64392 | 132.40085 | 27673 ft | 541 kts | 76° |
| 2026-05-08 07:31 | 33.65306 | 132.44488 | 27955 ft | 544 kts | 76° |
| 2026-05-08 07:31 | 33.66219 | 132.48898 | 28268 ft | 546 kts | 76° |
| 2026-05-08 07:31 | 33.67133 | 132.53320 | 28557 ft | 548 kts | 76° |
| 2026-05-08 07:32 | 33.68053 | 132.57772 | 28835 ft | 551 kts | 76° |
| 2026-05-08 07:32 | 33.68976 | 132.62253 | 29131 ft | 553 kts | 76° |
| 2026-05-08 07:32 | 33.69889 | 132.66686 | 29459 ft | 555 kts | 76° |
| 2026-05-08 07:32 | 33.70816 | 132.71191 | 29787 ft | 557 kts | 77° |
| 2026-05-08 07:33 | 33.71745 | 132.75719 | 30054 ft | 559 kts | 77° |
| 2026-05-08 07:33 | 33.72673 | 132.80269 | 30324 ft | 561 kts | 77° |
| 2026-05-08 07:33 | 33.73602 | 132.84825 | 30616 ft | 562 kts | 77° |
| 2026-05-08 07:33 | 33.74532 | 132.89387 | 30949 ft | 563 kts | 77° |
| 2026-05-08 07:34 | 33.75464 | 132.93965 | 31293 ft | 565 kts | 77° |
| 2026-05-08 07:34 | 33.76398 | 132.98567 | 31687 ft | 566 kts | 77° |
| 2026-05-08 07:34 | 33.77333 | 133.03172 | 32067 ft | 567 kts | 77° |
| 2026-05-08 07:34 | 33.78266 | 133.07778 | 32392 ft | 568 kts | 77° |
| 2026-05-08 07:35 | 33.79330 | 133.12365 | 32698 ft | 571 kts | 72° |
| 2026-05-08 07:35 | 33.80577 | 133.16891 | 32978 ft | 573 kts | 71° |
| 2026-05-08 07:35 | 33.81872 | 133.21430 | 33305 ft | 574 kts | 71° |
| 2026-05-08 07:35 | 33.83194 | 133.25986 | 33611 ft | 575 kts | 70° |
| 2026-05-08 07:36 | 33.84519 | 133.30523 | 33860 ft | 578 kts | 70° |
| 2026-05-08 07:36 | 33.85855 | 133.35105 | 34048 ft | 580 kts | 70° |
| 2026-05-08 07:36 | 33.87189 | 133.39706 | 34242 ft | 583 kts | 71° |
| 2026-05-08 07:36 | 33.88518 | 133.44318 | 34457 ft | 584 kts | 71° |
| 2026-05-08 07:37 | 33.89845 | 133.48951 | 34737 ft | 584 kts | 71° |
| 2026-05-08 07:37 | 33.91163 | 133.53564 | 35069 ft | 583 kts | 71° |
| 2026-05-08 07:37 | 33.92489 | 133.58199 | 35363 ft | 584 kts | 70° |
| 2026-05-08 07:37 | 33.93809 | 133.62825 | 35628 ft | 585 kts | 71° |
| 2026-05-08 07:38 | 33.95131 | 133.67461 | 35892 ft | 585 kts | 71° |
| 2026-05-08 07:38 | 33.96451 | 133.72093 | 36273 ft | 584 kts | 71° |
| 2026-05-08 07:38 | 33.97764 | 133.76712 | 36628 ft | 583 kts | 71° |
| 2026-05-08 07:38 | 33.99075 | 133.81344 | 36954 ft | 583 kts | 71° |
| 2026-05-08 07:39 | 34.00381 | 133.85956 | 37364 ft | 581 kts | 71° |
| 2026-05-08 07:39 | 34.01685 | 133.90565 | 37775 ft | 578 kts | 71° |
| 2026-05-08 07:39 | 34.02957 | 133.95083 | 38037 ft | 579 kts | 71° |
| 2026-05-08 07:39 | 34.04023 | 133.99831 | 38308 ft | 578 kts | 77° |
| 2026-05-08 07:40 | 34.04944 | 134.04549 | 38631 ft | 577 kts | 78° |
| 2026-05-08 07:40 | 34.05828 | 134.09263 | 38896 ft | 576 kts | 78° |
| 2026-05-08 07:40 | 34.06692 | 134.13984 | 39140 ft | 576 kts | 78° |
| 2026-05-08 07:40 | 34.07548 | 134.18708 | 39371 ft | 576 kts | 78° |
| 2026-05-08 07:41 | 34.08402 | 134.23430 | 39580 ft | 576 kts | 78° |
| 2026-05-08 07:41 | 34.09247 | 134.28103 | 39780 ft | 577 kts | 78° |
| 2026-05-08 07:41 | 34.09824 | 134.31288 | 39897 ft | 577 kts | 78° |
| 2026-05-08 07:42 | 34.11075 | 134.38219 | 40179 ft | 577 kts | 78° |
| 2026-05-08 07:42 | 34.11931 | 134.42949 | 40377 ft | 577 kts | 78° |
| 2026-05-08 07:42 | 34.12786 | 134.47672 | 40570 ft | 577 kts | 78° |
| 2026-05-08 07:42 | 34.13656 | 134.52483 | 40749 ft | 578 kts | 78° |
| 2026-05-08 07:43 | 34.14513 | 134.57242 | 40806 ft | 581 kts | 78° |
| 2026-05-08 07:43 | 34.16233 | 134.66834 | 40801 ft | 586 kts | 78° |
| 2026-05-08 07:44 | 34.17949 | 134.76459 | 40809 ft | 586 kts | 79° |
| 2026-05-08 07:44 | 34.19644 | 134.86010 | 40830 ft | 585 kts | 79° |
| 2026-05-08 07:45 | 34.21342 | 134.95624 | 40844 ft | 585 kts | 79° |
| 2026-05-08 07:45 | 34.23023 | 135.05238 | 40838 ft | 585 kts | 79° |
| 2026-05-08 07:46 | 34.24650 | 135.14887 | 40835 ft | 585 kts | 79° |
| 2026-05-08 07:46 | 34.26260 | 135.24526 | 40830 ft | 585 kts | 79° |
| 2026-05-08 07:47 | 34.27872 | 135.34162 | 40830 ft | 584 kts | 79° |
| 2026-05-08 07:47 | 34.29479 | 135.43786 | 40833 ft | 584 kts | 79° |
| 2026-05-08 07:48 | 34.31079 | 135.53407 | 40843 ft | 583 kts | 80° |
| 2026-05-08 07:48 | 34.32668 | 135.63017 | 40832 ft | 582 kts | 80° |
| 2026-05-08 07:49 | 34.34247 | 135.72621 | 40830 ft | 582 kts | 80° |
| 2026-05-08 07:49 | 34.35821 | 135.82238 | 40837 ft | 581 kts | 80° |
| 2026-05-08 07:50 | 34.37383 | 135.91830 | 40835 ft | 581 kts | 81° |
| 2026-05-08 07:50 | 34.38677 | 135.99817 | 40829 ft | 581 kts | 81° |
| 2026-05-08 07:51 | 34.40476 | 136.10976 | 40820 ft | 581 kts | 81° |
| 2026-05-08 07:51 | 34.42020 | 136.20585 | 40832 ft | 581 kts | 81° |
| 2026-05-08 07:52 | 34.43301 | 136.28640 | 40816 ft | 582 kts | 81° |
| 2026-05-08 07:52 | 34.44829 | 136.38286 | 40807 ft | 583 kts | 81° |
| 2026-05-08 07:53 | 34.46349 | 136.47934 | 40803 ft | 584 kts | 81° |
| 2026-05-08 07:53 | 34.47859 | 136.57556 | 40793 ft | 585 kts | 81° |
| 2026-05-08 07:54 | 34.49384 | 136.67328 | 40791 ft | 585 kts | 81° |
| 2026-05-08 07:54 | 34.50889 | 136.77021 | 40790 ft | 585 kts | 81° |
| 2026-05-08 07:55 | 34.52388 | 136.86731 | 40783 ft | 585 kts | 81° |
| 2026-05-08 07:55 | 34.53723 | 136.96460 | 40785 ft | 582 kts | 89° |
| 2026-05-08 07:56 | 34.54000 | 137.06237 | 40790 ft | 579 kts | 93° |
| 2026-05-08 07:56 | 34.54068 | 137.15934 | 40787 ft | 578 kts | 94° |
| 2026-05-08 07:57 | 34.53161 | 137.25460 | 40514 ft | 555 kts | 115° |
| 2026-05-08 07:57 | 34.51821 | 137.29804 | 39977 ft | 546 kts | 121° |
| 2026-05-08 07:57 | 34.50331 | 137.34028 | 39404 ft | 544 kts | 122° |
| 2026-05-08 07:57 | 34.48826 | 137.38237 | 38859 ft | 543 kts | 122° |
| 2026-05-08 07:58 | 34.47333 | 137.42443 | 38301 ft | 542 kts | 122° |
| 2026-05-08 07:58 | 34.45854 | 137.46645 | 37605 ft | 542 kts | 122° |
| 2026-05-08 07:58 | 34.44378 | 137.50841 | 36886 ft | 542 kts | 122° |
| 2026-05-08 07:58 | 34.42889 | 137.55061 | 36151 ft | 543 kts | 122° |
| 2026-05-08 07:59 | 34.41400 | 137.59270 | 35437 ft | 544 kts | 122° |
| 2026-05-08 07:59 | 34.39912 | 137.63478 | 34744 ft | 546 kts | 122° |
| 2026-05-08 07:59 | 34.38659 | 137.67864 | 34138 ft | 555 kts | 112° |
| 2026-05-08 07:59 | 34.37975 | 137.72501 | 33574 ft | 564 kts | 101° |
| 2026-05-08 08:00 | 34.38013 | 137.77272 | 33028 ft | 569 kts | 87° |
| 2026-05-08 08:00 | 34.38766 | 137.81963 | 32552 ft | 568 kts | 77° |
| 2026-05-08 08:00 | 34.39927 | 137.86463 | 32064 ft | 565 kts | 72° |
| 2026-05-08 08:00 | 34.41280 | 137.90911 | 31602 ft | 560 kts | 70° |
| 2026-05-08 08:01 | 34.42669 | 137.95309 | 31128 ft | 556 kts | 70° |
| 2026-05-08 08:01 | 34.44017 | 137.99659 | 30849 ft | 551 kts | 71° |
| 2026-05-08 08:01 | 34.45320 | 138.04024 | 30787 ft | 551 kts | 72° |
| 2026-05-08 08:02 | 34.47820 | 138.12799 | 30786 ft | 550 kts | 73° |
| 2026-05-08 08:02 | 34.49034 | 138.17204 | 30528 ft | 547 kts | 73° |
| 2026-05-08 08:02 | 34.50223 | 138.21554 | 30082 ft | 542 kts | 73° |
| 2026-05-08 08:02 | 34.51403 | 138.25888 | 29545 ft | 539 kts | 73° |
| 2026-05-08 08:03 | 34.52575 | 138.30193 | 29011 ft | 536 kts | 73° |
| 2026-05-08 08:03 | 34.53740 | 138.34464 | 28509 ft | 532 kts | 73° |
| 2026-05-08 08:03 | 34.54912 | 138.38764 | 28008 ft | 527 kts | 73° |
| 2026-05-08 08:03 | 34.56043 | 138.42922 | 27526 ft | 524 kts | 73° |
| 2026-05-08 08:04 | 34.57182 | 138.47106 | 27031 ft | 520 kts | 73° |
| 2026-05-08 08:04 | 34.58314 | 138.51259 | 26546 ft | 516 kts | 73° |
| 2026-05-08 08:04 | 34.59435 | 138.55382 | 26058 ft | 513 kts | 73° |
| 2026-05-08 08:04 | 34.60546 | 138.59471 | 25580 ft | 510 kts | 73° |
| 2026-05-08 08:05 | 34.61651 | 138.63551 | 25077 ft | 506 kts | 73° |
| 2026-05-08 08:05 | 34.62748 | 138.67603 | 24603 ft | 503 kts | 73° |
| 2026-05-08 08:05 | 34.63837 | 138.71638 | 24105 ft | 501 kts | 73° |
| 2026-05-08 08:05 | 34.64918 | 138.75645 | 23613 ft | 498 kts | 73° |
| 2026-05-08 08:06 | 34.65992 | 138.79635 | 23086 ft | 495 kts | 73° |
| 2026-05-08 08:06 | 34.67061 | 138.83605 | 22553 ft | 491 kts | 73° |
| 2026-05-08 08:06 | 34.68118 | 138.87526 | 22059 ft | 486 kts | 73° |
| 2026-05-08 08:06 | 34.69163 | 138.91419 | 21578 ft | 482 kts | 73° |
| 2026-05-08 08:07 | 34.70182 | 138.95262 | 21356 ft | 470 kts | 74° |
| 2026-05-08 08:07 | 34.71100 | 138.98985 | 21007 ft | 463 kts | 77° |
| 2026-05-08 08:07 | 34.71875 | 139.02794 | 20310 ft | 465 kts | 80° |
| 2026-05-08 08:07 | 34.72567 | 139.06676 | 19748 ft | 463 kts | 81° |
| 2026-05-08 08:08 | 34.73225 | 139.10511 | 19239 ft | 461 kts | 81° |
| 2026-05-08 08:08 | 34.73883 | 139.14305 | 18734 ft | 458 kts | 81° |
| 2026-05-08 08:08 | 34.74556 | 139.18082 | 18236 ft | 456 kts | 81° |
| 2026-05-08 08:08 | 34.75233 | 139.21783 | 17701 ft | 453 kts | 81° |
| 2026-05-08 08:09 | 34.75934 | 139.25557 | 17180 ft | 448 kts | 80° |
| 2026-05-08 08:09 | 34.76788 | 139.29146 | 17015 ft | 437 kts | 71° |
| 2026-05-08 08:09 | 34.78000 | 139.32524 | 16774 ft | 436 kts | 64° |
| 2026-05-08 08:09 | 34.79413 | 139.35744 | 16489 ft | 436 kts | 60° |
| 2026-05-08 08:10 | 34.80945 | 139.38915 | 16020 ft | 434 kts | 59° |
| 2026-05-08 08:10 | 34.82512 | 139.42054 | 15488 ft | 431 kts | 59° |
| 2026-05-08 08:10 | 34.84066 | 139.45162 | 14907 ft | 427 kts | 59° |
| 2026-05-08 08:10 | 34.85581 | 139.48226 | 14352 ft | 417 kts | 59° |
| 2026-05-08 08:11 | 34.87049 | 139.51238 | 13798 ft | 413 kts | 60° |
| 2026-05-08 08:11 | 34.88500 | 139.54253 | 13273 ft | 409 kts | 60° |
| 2026-05-08 08:11 | 34.89899 | 139.57182 | 13086 ft | 388 kts | 60° |
| 2026-05-08 08:11 | 34.91214 | 139.59948 | 13060 ft | 365 kts | 60° |
| 2026-05-08 08:12 | 34.92449 | 139.62548 | 13059 ft | 346 kts | 60° |
| 2026-05-08 08:12 | 34.93640 | 139.65056 | 13063 ft | 338 kts | 60° |
| 2026-05-08 08:12 | 34.94817 | 139.67533 | 13059 ft | 338 kts | 60° |
| 2026-05-08 08:12 | 34.95995 | 139.70020 | 13059 ft | 338 kts | 60° |
| 2026-05-08 08:13 | 34.97150 | 139.72508 | 13053 ft | 338 kts | 64° |
| 2026-05-08 08:13 | 34.97954 | 139.75183 | 13052 ft | 335 kts | 79° |
| 2026-05-08 08:13 | 34.98470 | 139.77956 | 13048 ft | 334 kts | 82° |
| 2026-05-08 08:13 | 34.98939 | 139.80732 | 13049 ft | 334 kts | 82° |
| 2026-05-08 08:14 | 34.99402 | 139.83509 | 13046 ft | 334 kts | 82° |
| 2026-05-08 08:14 | 34.99866 | 139.86290 | 13046 ft | 334 kts | 82° |
| 2026-05-08 08:14 | 35.00327 | 139.89065 | 12965 ft | 330 kts | 82° |
| 2026-05-08 08:14 | 35.00782 | 139.91799 | 12613 ft | 329 kts | 82° |
| 2026-05-08 08:15 | 35.01232 | 139.94530 | 12238 ft | 329 kts | 82° |
| 2026-05-08 08:15 | 35.01679 | 139.97270 | 11902 ft | 327 kts | 82° |
| 2026-05-08 08:15 | 35.02253 | 139.99955 | 11533 ft | 329 kts | 69° |
| 2026-05-08 08:15 | 35.03384 | 140.02370 | 11223 ft | 326 kts | 54° |
| 2026-05-08 08:16 | 35.04696 | 140.04613 | 10919 ft | 324 kts | 52° |
| 2026-05-08 08:16 | 35.06023 | 140.06826 | 10585 ft | 322 kts | 52° |
| 2026-05-08 08:16 | 35.07342 | 140.09023 | 10284 ft | 319 kts | 52° |
| 2026-05-08 08:16 | 35.08781 | 140.11057 | 10080 ft | 314 kts | 39° |
| 2026-05-08 08:17 | 35.10468 | 140.12733 | 10041 ft | 313 kts | 33° |
| 2026-05-08 08:17 | 35.12214 | 140.14334 | 10036 ft | 313 kts | 32° |
| 2026-05-08 08:17 | 35.13958 | 140.15917 | 10035 ft | 312 kts | 32° |
| 2026-05-08 08:17 | 35.15698 | 140.17492 | 10032 ft | 311 kts | 32° |
| 2026-05-08 08:18 | 35.17439 | 140.19070 | 10030 ft | 311 kts | 32° |
| 2026-05-08 08:18 | 35.19307 | 140.20327 | 10017 ft | 303 kts | 13° |
| 2026-05-08 08:18 | 35.21340 | 140.20784 | 9671 ft | 294 kts | 354° |
| 2026-05-08 08:18 | 35.23356 | 140.20825 | 9380 ft | 286 kts | 352° |
| 2026-05-08 08:19 | 35.25342 | 140.20809 | 9014 ft | 284 kts | 351° |
| 2026-05-08 08:19 | 35.27299 | 140.20784 | 8807 ft | 275 kts | 351° |
| 2026-05-08 08:19 | 35.29150 | 140.20768 | 8591 ft | 259 kts | 351° |
| 2026-05-08 08:19 | 35.30916 | 140.20748 | 8258 ft | 249 kts | 350° |
| 2026-05-08 08:20 | 35.32617 | 140.20723 | 7837 ft | 247 kts | 350° |
| 2026-05-08 08:20 | 35.34336 | 140.20692 | 7559 ft | 246 kts | 350° |
| 2026-05-08 08:20 | 35.36038 | 140.20664 | 7336 ft | 243 kts | 350° |
| 2026-05-08 08:20 | 35.37724 | 140.20639 | 7108 ft | 242 kts | 350° |
| 2026-05-08 08:21 | 35.39389 | 140.20614 | 7008 ft | 240 kts | 350° |
| 2026-05-08 08:21 | 35.41059 | 140.20588 | 6999 ft | 240 kts | 350° |
| 2026-05-08 08:21 | 35.42730 | 140.20564 | 7003 ft | 240 kts | 350° |
| 2026-05-08 08:21 | 35.44396 | 140.20540 | 7003 ft | 240 kts | 350° |
| 2026-05-08 08:22 | 35.46069 | 140.20518 | 7007 ft | 239 kts | 351° |
| 2026-05-08 08:22 | 35.47697 | 140.20501 | 6989 ft | 226 kts | 350° |
| 2026-05-08 08:22 | 35.49224 | 140.20487 | 7023 ft | 214 kts | 350° |
| 2026-05-08 08:22 | 35.50713 | 140.20466 | 7014 ft | 214 kts | 349° |
| 2026-05-08 08:23 | 35.52205 | 140.20437 | 6994 ft | 215 kts | 349° |
| 2026-05-08 08:23 | 35.53674 | 140.20243 | 6992 ft | 207 kts | 338° |
| 2026-05-08 08:23 | 35.55044 | 140.19821 | 6772 ft | 202 kts | 334° |
| 2026-05-08 08:23 | 35.56407 | 140.19337 | 6417 ft | 206 kts | 334° |
| 2026-05-08 08:24 | 35.57745 | 140.18785 | 6183 ft | 198 kts | 325° |
| 2026-05-08 08:24 | 35.58829 | 140.17837 | 6069 ft | 185 kts | 303° |
| 2026-05-08 08:24 | 35.59542 | 140.16586 | 5980 ft | 179 kts | 291° |
| 2026-05-08 08:24 | 35.60150 | 140.15257 | 5903 ft | 177 kts | 290° |
| 2026-05-08 08:25 | 35.60547 | 140.13856 | 5829 ft | 170 kts | 272° |
| 2026-05-08 08:25 | 35.60554 | 140.12416 | 5751 ft | 169 kts | 263° |
| 2026-05-08 08:25 | 35.60512 | 140.10975 | 5541 ft | 169 kts | 265° |
| 2026-05-08 08:25 | 35.60502 | 140.09535 | 5311 ft | 169 kts | 265° |
| 2026-05-08 08:26 | 35.60496 | 140.08093 | 5094 ft | 168 kts | 265° |
| 2026-05-08 08:26 | 35.60490 | 140.06662 | 4869 ft | 168 kts | 265° |
| 2026-05-08 08:26 | 35.60484 | 140.05231 | 4626 ft | 167 kts | 264° |
| 2026-05-08 08:26 | 35.60478 | 140.03810 | 4383 ft | 166 kts | 264° |
| 2026-05-08 08:27 | 35.60474 | 140.02876 | 4220 ft | 165 kts | 264° |
| 2026-05-08 08:27 | 35.60468 | 140.01465 | 3981 ft | 165 kts | 264° |
| 2026-05-08 08:27 | 35.60462 | 140.00060 | 3744 ft | 164 kts | 263° |
| 2026-05-08 08:27 | 35.60457 | 139.98659 | 3506 ft | 163 kts | 263° |
| 2026-05-08 08:28 | 35.60450 | 139.97266 | 3282 ft | 163 kts | 262° |
| 2026-05-08 08:28 | 35.60444 | 139.95873 | 3044 ft | 162 kts | 262° |
| 2026-05-08 08:28 | 35.60439 | 139.94507 | 2869 ft | 156 kts | 261° |
| 2026-05-08 08:28 | 35.60433 | 139.93190 | 2632 ft | 154 kts | 261° |
| 2026-05-08 08:29 | 35.60426 | 139.91876 | 2360 ft | 152 kts | 261° |
| 2026-05-08 08:29 | 35.60422 | 139.90607 | 2142 ft | 143 kts | 261° |
| 2026-05-08 08:29 | 35.60417 | 139.89407 | 1940 ft | 139 kts | 259° |
| 2026-05-08 08:29 | 35.60409 | 139.88212 | 1741 ft | 141 kts | 259° |
| 2026-05-08 08:30 | 35.60405 | 139.87035 | 1591 ft | 135 kts | 259° |
| 2026-05-08 08:30 | 35.60401 | 139.85921 | 1448 ft | 126 kts | 258° |
| 2026-05-08 08:30 | 35.60385 | 139.83808 | 962 ft | 119 kts | 258° |
| 2026-05-08 08:31 | 35.60370 | 139.82796 | 855 ft | 120 kts | 259° |
| 2026-05-08 08:31 | 35.60343 | 139.81757 | 771 ft | 122 kts | 257° |
| 2026-05-08 08:31 | 35.60100 | 139.80822 | 730 ft | 118 kts | 233° |
| 2026-05-08 08:31 | 35.59525 | 139.80061 | 654 ft | 123 kts | 215° |
| 2026-05-08 08:32 | 35.58813 | 139.79462 | 498 ft | 123 kts | 212° |
| 2026-05-08 08:32 | 35.58117 | 139.78871 | 394 ft | 121 kts | 213° |
| 2026-05-08 08:32 | 35.57429 | 139.78281 | 236 ft | 120 kts | 213° |
| 2026-05-08 08:32 | 35.56743 | 139.77700 | 93 ft | 120 kts | 212° |
| 2026-05-08 08:33 | 35.56080 | 139.77137 | 38 ft | 101 kts | 214° |
| 2026-05-08 08:33 | 35.55684 | 139.76797 | 33 ft | 38 kts | 215° |
| 2026-05-08 08:33 | 35.55531 | 139.76679 | 32 ft | 20 kts | 204° |
| 2026-05-08 08:33 | 35.55427 | 139.76640 | 31 ft | 15 kts | 192° |
| 2026-05-08 08:34 | 35.55318 | 139.76615 | 28 ft | 16 kts | 189° |
| 2026-05-08 08:34 | 35.55223 | 139.76599 | 29 ft | 11 kts | 183° |
| 2026-05-08 08:34 | 35.55157 | 139.76612 | 30 ft | 9 kts | 146° |
| 2026-05-08 08:34 | 35.55145 | 139.76686 | 30 ft | 11 kts | 76° |
| 2026-05-08 08:35 | 35.55184 | 139.76781 | 30 ft | 14 kts | 60° |
| 2026-05-08 08:35 | 35.55242 | 139.76902 | 27 ft | 19 kts | 60° |
| 2026-05-08 08:35 | 35.55302 | 139.77031 | 28 ft | 8 kts | 60° |
| 2026-05-08 08:35 | 35.55326 | 139.77104 | 27 ft | 11 kts | 92° |
| 2026-05-08 08:36 | 35.55271 | 139.77168 | 27 ft | 12 kts | 150° |
| 2026-05-08 08:36 | 35.55195 | 139.77221 | 29 ft | 13 kts | 149° |
| 2026-05-08 08:36 | 35.55104 | 139.77287 | 31 ft | 17 kts | 150° |
| 2026-05-08 08:36 | 35.54997 | 139.77363 | 27 ft | 19 kts | 150° |
| 2026-05-08 08:37 | 35.54878 | 139.77446 | 26 ft | 21 kts | 150° |
| 2026-05-08 08:37 | 35.54750 | 139.77537 | 26 ft | 22 kts | 150° |
| 2026-05-08 08:37 | 35.54611 | 139.77636 | 30 ft | 24 kts | 149° |
| 2026-05-08 08:37 | 35.54483 | 139.77728 | 32 ft | 19 kts | 149° |
| 2026-05-08 08:38 | 35.54420 | 139.77778 | 29 ft | 9 kts | 134° |
| 2026-05-08 08:38 | 35.54418 | 139.77860 | 29 ft | 12 kts | 68° |
| 2026-05-08 08:38 | 35.54464 | 139.77962 | 30 ft | 15 kts | 60° |
| 2026-05-08 08:38 | 35.54522 | 139.78082 | 29 ft | 18 kts | 59° |
| 2026-05-08 08:39 | 35.54551 | 139.78155 | 27 ft | 7 kts | 80° |
| 2026-05-08 08:39 | 35.54529 | 139.78203 | 27 ft | 7 kts | 144° |
| 2026-05-08 08:39 | 35.54476 | 139.78242 | 27 ft | 10 kts | 149° |
| 2026-05-08 08:39 | 35.54405 | 139.78294 | 27 ft | 13 kts | 150° |
| 2026-05-08 08:40 | 35.54321 | 139.78352 | 27 ft | 15 kts | 150° |
| 2026-05-08 08:40 | 35.54259 | 139.78398 | 28 ft | 9 kts | 141° |
| 2026-05-08 08:40 | 35.54252 | 139.78463 | 29 ft | 9 kts | 72° |
| 2026-05-08 08:40 | 35.54282 | 139.78532 | 32 ft | 9 kts | 60° |
| 2026-05-08 08:41 | 35.54313 | 139.78600 | 32 ft | 9 kts | 59° |
| 2026-05-08 08:41 | 35.54346 | 139.78670 | 37 ft | 10 kts | 60° |
| 2026-05-08 08:41 | 35.54384 | 139.78749 | 39 ft | 10 kts | 60° |
| 2026-05-08 08:41 | 35.54412 | 139.78815 | 40 ft | 9 kts | 70° |
| 2026-05-08 08:42 | 35.54390 | 139.78882 | 40 ft | 9 kts | 148° |
| 2026-05-08 08:42 | 35.54350 | 139.78872 | 40 ft | 7 kts | 214° |
| 2026-05-08 08:42 | 35.54309 | 139.78808 | 37 ft | 12 kts | 238° |
| 2026-05-08 08:42 | 35.54255 | 139.78702 | 33 ft | 17 kts | 237° |
| 2026-05-08 08:43 | 35.54211 | 139.78601 | 30 ft | 8 kts | 250° |
| 2026-05-08 08:43 | 35.54236 | 139.78543 | 30 ft | 9 kts | 326° |
| 2026-05-08 08:43 | 35.54294 | 139.78499 | 31 ft | 11 kts | 329° |
| 2026-05-08 08:43 | 35.54372 | 139.78443 | 29 ft | 15 kts | 330° |
| 2026-05-08 08:44 | 35.54471 | 139.78374 | 30 ft | 18 kts | 329° |
| 2026-05-08 08:44 | 35.54577 | 139.78298 | 30 ft | 13 kts | 330° |
| 2026-05-08 08:44 | 35.54657 | 139.78242 | 30 ft | 12 kts | 330° |
| 2026-05-08 08:44 | 35.54706 | 139.78207 | 30 ft | 6 kts | 329° |
| 2026-05-08 08:45 | 35.54749 | 139.78205 | 30 ft | 7 kts | 29° |
| 2026-05-08 08:45 | 35.54774 | 139.78250 | 30 ft | 5 kts | 57° |
| 2026-05-08 08:45 | 35.54782 | 139.78265 | 30 ft | 0 kts | 55° |